Rocklake, North Dakota
Current Conditions -  °F | °C
As of 2:35 AM on Friday 19 Dec 2014 (Local Time) from K06D Reporting Station
Haze Haze  
Wind Chill: 13°   Ceiling: 500
Heat Index: 21°   Visibility: 5mi
Dew Point: 21°   Wind: 7mph
Humidity: 100%   Direction: 180°S
Pressure: 29.98"   Gusts: NA
Location:  48.79°N, 99.25°W
Report Text: K06D 190835Z AUTO 18006KT 5SM BR OVC005 M06/M06 A2998 RMK AO2
Loading
Personal Weather Stations






























Interactive Weather Map New forecast layout! Learn more

10-Day Weather Forecast

Advertisements
Track Severe Weather on mobile